WARNING - Change wsUserSettings.php: $SITE["topfolder"] from : public_html./ to: ./
Iedere zaterdag na 11 uur op radio zuidwest.


Webcam zuid Meer informatie Webcam zuid


Webcam noord Meer informatie Webcam noord


Onweer radar Meer informatie blitzortung!


Regen radar Meer informatie rain snow radar


Bezoek onze andere website:

Template documentation
and downloads

Onze andere website


U vindt ons ook hier:

Het Weer Aktueel

UK Metoffice

European Weather Network

WeatherCloud

Weather Underground

Austria Weather Network

AWEKAS

Citizen Weather Observer Program (CWOP)

HAMweather, WeatherForYou, PWS Weather

Wetterpage 24

Roosendaal op internet

VWKWEB

RadioZuidWestFM



Het weer levert geen direct gevaar op.    Er zijn geen waarschuwingen afgegeven.

METAR rapporten vliegvelden

   
EHWO - Bergen op Zoom
Gewijzigd: 06-12-2021 01:08
Nevel, Bewolking  
Nevel, Bewolking  
   Wind: varieert 3.7 km/h
Wind: varieert 3.7 km/h
Temperatuur: 1°C
Dauwpunt: 1°C
Vochtigheid: 100%
Barometer: 1011 hPa
Bewolking: Bewolking
Zicht: 3 km
Bewolking: Bewolking 3000 ft
EHWO 060008Z AUTO VRB02KT 3400 BR OVC030 01/01 Q1011 YLO
EHWO - Woensdrecht
Gewijzigd: 06-12-2021 01:08
Nevel, Bewolking  
Nevel, Bewolking  
   Wind: varieert 3.7 km/h
Wind: varieert 3.7 km/h
Temperatuur: 1°C
Dauwpunt: 1°C
Vochtigheid: 100%
Barometer: 1011 hPa
Bewolking: Bewolking
Zicht: 3 km
Bewolking: Bewolking 3000 ft
EHWO 060008Z AUTO VRB02KT 3400 BR OVC030 01/01 Q1011 YLO
EHWO - Steenbergen
Gewijzigd: 06-12-2021 01:08
Nevel, Bewolking  
Nevel, Bewolking  
   Wind: varieert 3.7 km/h
Wind: varieert 3.7 km/h
Temperatuur: 1°C
Dauwpunt: 1°C
Vochtigheid: 100%
Barometer: 1011 hPa
Bewolking: Bewolking
Zicht: 3 km
Bewolking: Bewolking 3000 ft
EHWO 060008Z AUTO VRB02KT 3400 BR OVC030 01/01 Q1011 YLO
EHWO - Oud-Gastel
Gewijzigd: 06-12-2021 01:08
Nevel, Bewolking  
Nevel, Bewolking  
   Wind: varieert 3.7 km/h
Wind: varieert 3.7 km/h
Temperatuur: 1°C
Dauwpunt: 1°C
Vochtigheid: 100%
Barometer: 1011 hPa
Bewolking: Bewolking
Zicht: 3 km
Bewolking: Bewolking 3000 ft
EHWO 060008Z AUTO VRB02KT 3400 BR OVC030 01/01 Q1011 YLO
EHWO - Oudenbosch
Gewijzigd: 06-12-2021 01:08
Nevel, Bewolking  
Nevel, Bewolking  
   Wind: varieert 3.7 km/h
Wind: varieert 3.7 km/h
Temperatuur: 1°C
Dauwpunt: 1°C
Vochtigheid: 100%
Barometer: 1011 hPa
Bewolking: Bewolking
Zicht: 3 km
Bewolking: Bewolking 3000 ft
EHWO 060008Z AUTO VRB02KT 3400 BR OVC030 01/01 Q1011 YLO
EHWO - Rucphen
Gewijzigd: 06-12-2021 01:08
Nevel, Bewolking  
Nevel, Bewolking  
   Wind: varieert 3.7 km/h
Wind: varieert 3.7 km/h
Temperatuur: 1°C
Dauwpunt: 1°C
Vochtigheid: 100%
Barometer: 1011 hPa
Bewolking: Bewolking
Zicht: 3 km
Bewolking: Bewolking 3000 ft
EHWO 060008Z AUTO VRB02KT 3400 BR OVC030 01/01 Q1011 YLO
EHWO - Bergen op Zoom
Gewijzigd: 06-12-2021 01:08
Nevel, Bewolking  
Nevel, Bewolking  
   Wind: varieert 3.7 km/h
Wind: varieert 3.7 km/h
Temperatuur: 1°C
Dauwpunt: 1°C
Vochtigheid: 100%
Barometer: 1011 hPa
Bewolking: Bewolking
Zicht: 3 km
Bewolking: Bewolking 3000 ft
EHWO 060008Z AUTO VRB02KT 3400 BR OVC030 01/01 Q1011 YLO
EHWO - Fijnaart
Gewijzigd: 06-12-2021 01:08
Nevel, Bewolking  
Nevel, Bewolking  
   Wind: varieert 3.7 km/h
Wind: varieert 3.7 km/h
Temperatuur: 1°C
Dauwpunt: 1°C
Vochtigheid: 100%
Barometer: 1011 hPa
Bewolking: Bewolking
Zicht: 3 km
Bewolking: Bewolking 3000 ft
EHWO 060008Z AUTO VRB02KT 3400 BR OVC030 01/01 Q1011 YLO
EHWO - Ossendrecht
Gewijzigd: 06-12-2021 01:08
Nevel, Bewolking  
Nevel, Bewolking  
   Wind: varieert 3.7 km/h
Wind: varieert 3.7 km/h
Temperatuur: 1°C
Dauwpunt: 1°C
Vochtigheid: 100%
Barometer: 1011 hPa
Bewolking: Bewolking
Zicht: 3 km
Bewolking: Bewolking 3000 ft
EHWO 060008Z AUTO VRB02KT 3400 BR OVC030 01/01 Q1011 YLO

Script ontwikkeld door  Saratoga-weather.org Aangepast voor de template door  Weerstation Leuven

Apparatuur in gebruik:

Weerstation
Davis VP2

Weerprogramma
Meteobridge

Weercomputer
Shuttle

Webleverancier
WeservIT

Davis VP2

Meteobridge

Shuttle

WeservIT